createdAt,value
2023-02-24T00:03:45.130Z,58.71
2023-02-24T00:08:47.432Z,59.41
2023-02-24T00:13:49.047Z,58.82
2023-02-24T00:18:51.194Z,57.48
2023-02-24T00:23:53.704Z,57.36
2023-02-24T00:29:03.695Z,55.30
2023-02-24T00:34:07.154Z,55.16
2023-02-24T00:39:10.264Z,55.47
2023-02-24T00:44:14.784Z,56.34
2023-02-24T00:49:19.689Z,56.35
2023-02-24T00:54:21.628Z,57.46
2023-02-24T00:59:26.192Z,56.70
2023-02-24T01:04:29.387Z,57.67
2023-02-24T01:09:32.457Z,58.11
2023-02-24T01:14:36.150Z,56.91
2023-02-24T01:19:39.106Z,56.97
2023-02-24T01:24:43.306Z,57.00
2023-02-24T01:29:46.778Z,56.78
2023-02-24T01:34:52.198Z,57.26
2023-02-24T01:39:54.327Z,57.49
2023-02-24T01:45:06.144Z,57.30
2023-02-24T01:50:09.906Z,56.91
2023-02-24T01:55:20.163Z,57.67
2023-02-24T02:00:38.107Z,57.95
2023-02-24T02:05:41.687Z,58.27
2023-02-24T02:10:46.788Z,58.70
2023-02-24T02:16:13.717Z,58.45
2023-02-24T02:21:36.886Z,58.37
2023-02-24T02:27:06.858Z,58.87
2023-02-24T02:32:38.340Z,59.22
2023-02-24T02:37:50.485Z,59.99
2023-02-24T02:43:15.826Z,60.79
2023-02-24T02:48:25.733Z,61.38
2023-02-24T02:53:39.724Z,60.26
2023-02-24T02:58:47.828Z,60.59
2023-02-24T03:03:56.779Z,61.00
2023-02-24T03:09:15.910Z,62.45
2023-02-24T03:14:24.017Z,62.06
2023-02-24T03:19:37.860Z,62.74
2023-02-24T03:24:41.252Z,63.54
2023-02-24T03:29:56.642Z,64.02
2023-02-24T03:35:08.598Z,62.89
2023-02-24T03:40:16.282Z,61.93
2023-02-24T03:45:22.632Z,61.75
2023-02-24T03:50:26.976Z,61.76
2023-02-24T03:55:59.590Z,63.40
2023-02-24T04:01:16.121Z,63.86
2023-02-24T04:06:31.787Z,64.64
2023-02-24T04:11:42.905Z,65.22
2023-02-24T04:17:03.800Z,65.59
2023-02-24T04:22:10.548Z,66.18
2023-02-24T04:27:15.657Z,66.19
2023-02-24T04:32:22.490Z,66.41
2023-02-24T04:37:24.870Z,66.86
2023-02-24T04:42:27.446Z,67.28
2023-02-24T04:47:29.326Z,68.23
2023-02-24T04:52:30.998Z,68.78
2023-02-24T04:57:37.607Z,68.70
2023-02-24T05:02:39.322Z,69.49
2023-02-24T05:07:40.997Z,68.83
2023-02-24T05:12:43.076Z,69.29
2023-02-24T05:17:44.686Z,70.40
2023-02-24T05:22:51.853Z,70.83
2023-02-24T05:27:53.566Z,70.31
2023-02-24T05:32:56.344Z,70.23
2023-02-24T05:37:59.212Z,70.37
2023-02-24T05:43:04.695Z,70.22
2023-02-24T05:48:06.294Z,70.80
2023-02-24T05:53:09.610Z,71.49
2023-02-24T05:58:11.387Z,71.27
2023-02-24T06:03:17.529Z,71.58
2023-02-24T06:08:19.506Z,73.22
2023-02-24T06:13:21.135Z,73.78
2023-02-24T06:18:22.737Z,73.48
2023-02-24T06:23:26.768Z,73.84
2023-02-24T06:28:28.437Z,73.91
2023-02-24T06:33:31.222Z,74.50
2023-02-24T06:38:34.616Z,74.51
2023-02-24T06:43:45.162Z,74.71
2023-02-24T06:48:48.159Z,75.72
2023-02-24T06:53:52.321Z,75.10
2023-02-24T06:58:55.913Z,76.73
2023-02-24T07:04:07.877Z,78.14
2023-02-24T07:09:15.096Z,79.79
2023-02-24T07:14:16.740Z,80.83
2023-02-24T07:19:20.084Z,81.19
2023-02-24T07:24:25.828Z,82.50
2023-02-24T07:29:30.463Z,83.06
2023-02-24T07:34:33.773Z,84.57
2023-02-24T07:39:37.529Z,85.03
2023-02-24T07:44:39.462Z,85.79
2023-02-24T07:49:41.266Z,87.36
2023-02-24T07:54:43.312Z,88.23
2023-02-24T07:59:45.275Z,89.10
2023-02-24T08:04:51.566Z,89.80
2023-02-24T08:10:12.083Z,90.43
2023-02-24T08:15:24.163Z,91.46
2023-02-24T08:20:52.028Z,93.16
2023-02-24T08:25:53.899Z,95.79
2023-02-24T08:30:55.746Z,98.60
2023-02-24T08:36:02.192Z,99.83
2023-02-24T08:41:05.061Z,100.00
2023-02-24T08:46:13.394Z,100.00
2023-02-24T08:51:28.798Z,100.00
2023-02-24T08:56:34.589Z,100.00
2023-02-24T09:01:40.243Z,100.00
2023-02-24T09:06:53.826Z,100.00
2023-02-24T09:11:58.974Z,100.00
2023-02-24T09:17:03.485Z,100.00
2023-02-24T09:22:21.116Z,100.00
2023-02-24T09:27:29.275Z,100.00
2023-02-24T09:32:31.101Z,100.00
2023-02-24T09:37:32.860Z,100.00
2023-02-24T09:42:46.414Z,100.00
2023-02-24T09:47:54.816Z,100.00
2023-02-24T09:53:13.971Z,100.00
2023-02-24T09:58:58.719Z,100.00
2023-02-24T10:04:20.258Z,100.00
2023-02-24T10:09:40.725Z,100.00
2023-02-24T10:15:18.713Z,100.00
2023-02-24T10:20:39.306Z,100.00
2023-02-24T10:25:55.628Z,100.00
2023-02-24T10:31:25.075Z,100.00
2023-02-24T10:36:35.339Z,100.00
2023-02-24T10:41:47.008Z,100.00
2023-02-24T10:47:11.889Z,100.00
2023-02-24T10:52:33.457Z,100.00
2023-02-24T10:57:58.514Z,100.00
2023-02-24T11:03:10.656Z,100.00
2023-02-24T11:08:15.827Z,100.00
2023-02-24T11:13:36.105Z,100.00
2023-02-24T11:18:39.591Z,100.00
2023-02-24T11:23:50.106Z,100.00
2023-02-24T11:29:30.560Z,99.44
2023-02-24T11:34:59.559Z,98.34
2023-02-24T11:40:09.470Z,95.77
2023-02-24T11:45:32.810Z,96.71
2023-02-24T11:51:02.117Z,95.21
2023-02-24T11:56:11.396Z,89.67
2023-02-24T12:01:35.686Z,90.85
2023-02-24T12:06:52.389Z,90.98
2023-02-24T12:12:09.334Z,89.94
2023-02-24T12:17:10.897Z,89.68
2023-02-24T12:22:15.871Z,91.47
2023-02-24T12:27:46.509Z,91.72
2023-02-24T12:33:03.969Z,89.91
2023-02-24T12:38:43.390Z,87.87
2023-02-24T12:43:47.936Z,85.17
2023-02-24T12:49:21.607Z,87.41
2023-02-24T12:54:31.404Z,85.38
2023-02-24T12:59:38.220Z,82.95
2023-02-24T13:05:24.670Z,83.37
2023-02-24T13:11:05.354Z,77.82
2023-02-24T13:16:07.237Z,76.69
2023-02-24T13:21:14.865Z,80.68
2023-02-24T13:26:23.137Z,79.81
2023-02-24T13:31:26.359Z,82.01
2023-02-24T13:36:28.333Z,81.55
2023-02-24T13:41:29.941Z,80.46
2023-02-24T13:46:50.691Z,80.62
2023-02-24T13:52:20.363Z,79.64
2023-02-24T13:57:40.717Z,78.61
2023-02-24T14:02:44.211Z,81.00
2023-02-24T14:07:50.173Z,79.02
2023-02-24T14:13:04.761Z,76.86
2023-02-24T14:18:06.502Z,75.82
2023-02-24T14:23:29.206Z,76.58
2023-02-24T14:28:39.270Z,73.20
2023-02-24T14:33:44.365Z,76.12
2023-02-24T14:38:46.194Z,76.89
2023-02-24T14:43:47.939Z,74.88
2023-02-24T14:48:56.077Z,76.26
2023-02-24T14:54:02.888Z,79.00
2023-02-24T14:59:15.028Z,78.32
2023-02-24T15:04:37.113Z,78.99
2023-02-24T15:09:43.108Z,78.98
2023-02-24T15:14:51.088Z,78.63
2023-02-24T15:19:55.782Z,76.54
2023-02-24T15:25:15.781Z,81.21
2023-02-24T15:30:38.852Z,81.77
2023-02-24T15:35:48.580Z,78.18
2023-02-24T15:40:55.792Z,78.36
2023-02-24T15:45:57.518Z,78.42
2023-02-24T15:51:05.667Z,78.71
2023-02-24T15:56:07.345Z,75.94
2023-02-24T16:01:11.459Z,77.20
2023-02-24T16:06:19.920Z,77.79
2023-02-24T16:11:26.677Z,78.03
2023-02-24T16:16:28.624Z,76.64
2023-02-24T16:21:30.332Z,75.96
2023-02-24T16:26:36.160Z,76.87
2023-02-24T16:31:39.123Z,74.80
2023-02-24T16:36:42.503Z,74.73
2023-02-24T16:41:47.076Z,78.64
2023-02-24T16:46:49.307Z,77.00
2023-02-24T16:51:50.949Z,76.03
2023-02-24T16:56:52.746Z,77.12
2023-02-24T17:01:54.748Z,77.78
2023-02-24T17:06:56.672Z,78.41
2023-02-24T17:11:58.349Z,78.50
2023-02-24T17:17:00.156Z,76.92
2023-02-24T17:22:01.845Z,79.77
2023-02-24T17:27:04.541Z,78.40
2023-02-24T17:32:06.533Z,76.78
2023-02-24T17:37:08.325Z,76.56
2023-02-24T17:42:09.984Z,75.39
2023-02-24T17:47:12.282Z,75.39
2023-02-24T17:52:13.932Z,75.92
2023-02-24T17:57:15.801Z,75.80
2023-02-24T18:02:17.992Z,74.72
2023-02-24T18:07:21.126Z,74.84
2023-02-24T18:12:24.714Z,74.62
2023-02-24T18:17:26.408Z,73.04
2023-02-24T18:22:28.030Z,71.86
2023-02-24T18:27:29.718Z,70.96
2023-02-24T18:32:31.501Z,69.87
2023-02-24T18:37:34.004Z,70.46
2023-02-24T18:42:35.605Z,71.80
2023-02-24T18:47:37.357Z,73.84
2023-02-24T18:52:39.172Z,72.59
2023-02-24T18:57:41.118Z,77.53
2023-02-24T19:02:42.868Z,73.63
2023-02-24T19:07:44.657Z,73.50
2023-02-24T19:12:47.266Z,72.62
2023-02-24T19:17:49.042Z,70.38
2023-02-24T19:22:51.762Z,68.86
2023-02-24T19:27:54.109Z,67.42
2023-02-24T19:32:55.878Z,70.10
2023-02-24T19:37:57.668Z,74.84
2023-02-24T19:42:59.288Z,73.12
2023-02-24T19:48:00.952Z,73.82
2023-02-24T19:53:02.585Z,75.11
2023-02-24T19:58:04.250Z,74.49
2023-02-24T20:03:06.031Z,73.18
2023-02-24T20:08:07.714Z,73.64
2023-02-24T20:13:09.360Z,71.25
2023-02-24T20:18:11.301Z,71.37
2023-02-24T20:23:13.006Z,71.02
2023-02-24T20:28:14.606Z,73.17
2023-02-24T20:33:19.268Z,74.82
2023-02-24T20:38:22.043Z,71.52
2023-02-24T20:43:23.878Z,70.14
2023-02-24T20:48:26.305Z,69.50
2023-02-24T20:53:27.932Z,70.37
2023-02-24T20:58:29.647Z,69.24
2023-02-24T21:03:32.391Z,69.57
2023-02-24T21:08:35.013Z,68.10
2023-02-24T21:13:41.052Z,72.61
2023-02-24T21:18:44.813Z,74.67
2023-02-24T21:23:47.196Z,72.38
2023-02-24T21:28:56.207Z,71.81
2023-02-24T21:33:59.105Z,69.22
2023-02-24T21:39:01.012Z,68.88
2023-02-24T21:44:02.663Z,68.25
2023-02-24T21:49:04.535Z,68.99
2023-02-24T21:54:08.837Z,70.09
2023-02-24T21:59:11.285Z,70.44
2023-02-24T22:04:16.169Z,69.03
2023-02-24T22:09:19.418Z,68.48
2023-02-24T22:14:21.760Z,69.11
2023-02-24T22:19:23.878Z,68.90
2023-02-24T22:24:25.473Z,68.62
2023-02-24T22:29:27.132Z,68.73
2023-02-24T22:34:28.780Z,68.44
2023-02-24T22:39:30.481Z,69.23
2023-02-24T22:44:32.073Z,65.48
2023-02-24T22:49:33.723Z,64.21
2023-02-24T22:54:35.516Z,64.54
2023-02-24T22:59:37.076Z,65.27
2023-02-24T23:04:38.982Z,66.34
2023-02-24T23:09:40.575Z,68.83
2023-02-24T23:14:42.322Z,67.50
2023-02-24T23:19:43.995Z,67.18
2023-02-24T23:24:45.659Z,68.71
2023-02-24T23:29:47.255Z,68.81
2023-02-24T23:34:48.877Z,69.06
2023-02-24T23:39:50.678Z,69.22
2023-02-24T23:44:52.759Z,68.47
2023-02-24T23:49:54.408Z,67.85
2023-02-24T23:54:55.988Z,66.97
2023-02-24T23:59:58.920Z,66.19
